Silverthorne, Colorado
Current Conditions -  °F | °C
As of 10:35 AM on Wednesday 26 Nov 2014 (Local Time) from KCCU Reporting Station
Overcast Overcast  
Wind Chill:   Ceiling: 600
Heat Index: 27°   Visibility: NA
Dew Point: 21°   Wind: 43mph
Humidity: 80%   Direction: 280°W
Pressure: 30.31"   Gusts: 53mph
Location:  39.65°N, 106.08°W
Report Text: KCCU 261735Z AUTO 28037G46KT BKN006 OVC012 M03/M06 A3031 RMK AO2 PWINO
Loading
Personal Weather Stations






























Interactive Weather Map New forecast layout! Learn more

10-Day Weather Forecast

Advertisements
Track Severe Weather on mobile